Airfield :







YOU CAN JOIN US ON...

 
LOGIN :

Register | Disclaimer

   EN    FR    IT 

 









Legend :    VFR   Marginal VFR   IFR   Intensive IFR   Very Intensive IFR
Visi :
Ceiling :
>= 8 km
>= 3000ft
5 to 8 km
1000 to 3000 ft
1500m to 5 km
500 to 1000 ft
800 to 1500m
200 to 500 ft
< 800m
< 200 ft
Symbols :   Thunderstorms  Fog  Heavy snow  Heavy precipitations  Wind > 20 kt







- Airport Elevation : 160 ft
- IATA code : YYR


CYYR - Goose Bay

CURRENT METAR :
  • 171835Z 22011G22KT 15SM FEW009 BKN049 OVC075 20/16 A2946 RMK SF1SC7AC1 LTNG DTCTRS REP STRIKES 74 NM NW QUAD SH DIST N SLP975

EXPIRED METARs :
  • 171800Z 23020G33KT 15SM -SHRA BKN064 OVC075 25/13 A2944 RMK SC6AC2 LTNG DTCTRS REP STRIKES 85 NM NW SLP971
  • 171750Z 23026G33KT 15SM -SHRA BKN064 OVC071 25/12 A2943 RMK SC6AC2 LTNG DTCTRS REP STRIKES 89 NM E VIS LWR NW QUAD SLP968
  • 171700Z 20021G29KT 15SM SCT052 SCT071 SCT260 27/15 A2943 RMK SC3AC1CI1 SH DIST W SLP965
  • 171600Z 19018G26KT 15SM SCT059 BKN086 BKN120 25/14 A2947 RMK SC3AC2AC1 SLP980

TAF TAF CYYR
Valid from the 17 at 18:00 until the 18 at 18:00 UTC


171730Z 1718/1818 20020G30KT P6SM BKN050 OVC070
TEMPO 1718/1721 P6SM -SHRA BKN030 OVC050
PROB30 1718/1721 VRB25G35KT 4SM -TSRA BR BKN030CB OVC050
FM172100 24015G25KT P6SM SCT025 BKN040
TEMPO 1802/1809 P6SM -SHRA BKN025 OVC040
FM180900 28018G28KT P6SM SCT015 OVC025
TEMPO 1809/1818 4SM -SHRA BR OVC015 RMK NXT FCST BY 180000Z
CZQX FIR / North America



MET'MAP, your aeronautical weather chart ! - Copyright ORBIFLY December 2007 - Disclaimer

ORBIFLY MET'MAP TEAM :

Programming & Development : Alexandra Zaïnal
Concept & Development : Baudouin d'Aumeries
Co-Development & Prog : Marc-Olivier Méhu
Technical & hardware support : Manuel Goepfert

Contact : metmap@orbifly.com




SOURCES & CREDITS :

   NOAA